Time;durP1;ratioP1;P1;durP2;ratioP2;P2;SDS_P1;SDS_P2;PMS_P1;PMS_P2;Temp;Humidity;BMP_temperature;BMP_pressure;BME280_temperature;BME280_humidity;BME280_pressure;Samples;Min_cycle;Max_cycle;Signal;HPM_P1;HPM_P2
2022/01/25 00:08:38;;;;;;;77.28;36.58;;;3.90;99.90;;;;;;4899455;29;20075;-86
2022/01/25 00:25:08;;;;;;;75.28;36.70;;;3.90;99.90;;;;;;4910762;29;20051;-85
2022/01/25 00:32:16;;;;;;;83.75;38.10;;;3.90;99.90;;;;;;4898364;29;20478;-86
2022/01/25 00:34:42;;;;;;;81.07;38.67;;;3.90;99.90;;;;;;4912576;29;20071;-86
2022/01/25 00:37:08;;;;;;;74.65;36.08;;;3.90;99.90;;;;;;4896781;29;20509;-86
2022/01/25 00:39:37;;;;;;;79.80;37.45;;;3.80;99.90;;;;;;4898296;29;20112;-86
2022/01/25 00:42:06;;;;;;;78.00;38.30;;;3.80;99.90;;;;;;4912818;29;20067;-86
2022/01/25 00:44:37;;;;;;;79.47;38.10;;;3.80;99.90;;;;;;4912041;29;20565;-86
2022/01/25 00:47:05;;;;;;;79.47;37.90;;;3.90;99.90;;;;;;4898446;29;20065;-87
2022/01/25 00:49:39;;;;;;;85.22;42.58;;;3.90;99.90;;;;;;4896930;29;20421;-86
2022/01/25 00:54:57;;;;;;;121.38;51.03;;;3.80;99.90;;;;;;4898429;29;20095;-86
2022/01/25 00:57:25;;;;;;;96.82;42.00;;;3.80;99.90;;;;;;4913373;29;20442;-86
2022/01/25 00:59:50;;;;;;;95.80;43.42;;;3.80;99.90;;;;;;4912192;29;20063;-86
2022/01/25 01:02:16;;;;;;;94.13;41.90;;;3.80;99.90;;;;;;4912496;29;20535;-86
2022/01/25 01:04:43;;;;;;;93.28;41.42;;;3.80;99.90;;;;;;4898139;29;20037;-85
2022/01/25 01:07:13;;;;;;;138.10;52.10;;;3.80;99.90;;;;;;4896872;29;20040;-86
2022/01/25 01:09:41;;;;;;;115.57;48.35;;;3.80;99.90;;;;;;4897565;29;20414;-85
2022/01/25 01:12:14;;;;;;;103.55;42.85;;;3.80;99.90;;;;;;4912385;29;20025;-87
2022/01/25 01:28:50;;;;;;;133.27;50.45;;;3.80;99.90;;;;;;4910781;29;20035;-86
2022/01/25 01:31:28;;;;;;;104.88;46.80;;;3.80;99.90;;;;;;4898474;29;20043;-86
2022/01/25 01:37:21;;;;;;;95.95;42.58;;;3.80;99.90;;;;;;4848885;29;20053;-87
2022/01/25 01:40:17;;;;;;;97.03;42.13;;;3.80;99.90;;;;;;4901093;29;20123;-86
2022/01/25 01:45:55;;;;;;;89.82;40.05;;;3.80;99.90;;;;;;4883683;29;20062;-85
2022/01/25 01:48:48;;;;;;;111.43;46.15;;;3.80;99.90;;;;;;4913626;29;20024;-85
2022/01/25 01:51:20;;;;;;;96.78;41.78;;;3.80;99.90;;;;;;4912477;29;20036;-85
2022/01/25 01:53:47;;;;;;;94.25;41.40;;;3.80;99.90;;;;;;4915239;29;20033;-85
2022/01/25 01:56:13;;;;;;;99.20;43.60;;;3.80;99.90;;;;;;4900845;29;20501;-86
2022/01/25 01:58:40;;;;;;;98.32;44.03;;;3.80;99.90;;;;;;4899802;29;20035;-86
2022/01/25 02:01:15;;;;;;;102.63;42.05;;;3.80;99.90;;;;;;4915756;29;20036;-86
2022/01/25 02:03:42;;;;;;;103.18;44.50;;;3.80;99.90;;;;;;4900960;29;20086;-86
2022/01/25 02:06:08;;;;;;;129.32;51.20;;;3.80;99.90;;;;;;4901359;29;20031;-86
2022/01/25 02:08:34;;;;;;;104.22;45.28;;;3.70;99.90;;;;;;4899466;29;20041;-85
2022/01/25 02:11:01;;;;;;;117.53;48.63;;;3.80;99.90;;;;;;4916065;29;20165;-86
2022/01/25 02:13:27;;;;;;;99.35;43.03;;;3.80;99.90;;;;;;4900967;29;20059;-85
2022/01/25 02:15:55;;;;;;;109.90;46.38;;;3.80;99.90;;;;;;4915000;29;20477;-86
2022/01/25 02:23:41;;;;;;;82.78;38.95;;;3.80;99.90;;;;;;4900695;29;20039;-86
2022/01/25 02:26:09;;;;;;;81.60;37.95;;;3.70;99.90;;;;;;4899380;29;20037;-86
2022/01/25 02:28:43;;;;;;;78.13;36.83;;;3.70;99.90;;;;;;4914942;29;20024;-86
2022/01/25 02:31:11;;;;;;;81.35;37.83;;;3.70;99.90;;;;;;4899636;29;20437;-86
2022/01/25 02:33:37;;;;;;;81.43;37.92;;;3.70;99.90;;;;;;4898817;29;20037;-86
2022/01/25 02:36:06;;;;;;;81.40;37.83;;;3.70;99.90;;;;;;4899402;29;20446;-86
2022/01/25 02:38:33;;;;;;;80.85;37.30;;;3.70;99.90;;;;;;4914465;29;20052;-86
2022/01/25 02:40:59;;;;;;;78.60;37.13;;;3.70;99.90;;;;;;4914565;29;20040;-86
2022/01/25 02:43:27;;;;;;;85.15;37.85;;;3.70;99.90;;;;;;4898846;29;20029;-85
2022/01/25 02:48:58;;;;;;;83.72;37.05;;;3.70;99.90;;;;;;4900257;29;20200;-86
2022/01/25 02:51:29;;;;;;;79.45;38.20;;;3.70;99.90;;;;;;4898701;29;20028;-85
2022/01/25 02:53:56;;;;;;;84.35;37.28;;;3.70;99.90;;;;;;4898883;29;20084;-86
2022/01/25 02:56:22;;;;;;;79.13;37.83;;;3.70;99.90;;;;;;4898791;29;20033;-85
2022/01/25 02:58:48;;;;;;;81.88;37.67;;;3.70;99.90;;;;;;4898366;29;20028;-86
2022/01/25 03:01:15;;;;;;;80.45;38.25;;;3.70;99.90;;;;;;4914462;29;20032;-85
2022/01/25 03:03:41;;;;;;;81.43;39.17;;;3.70;99.90;;;;;;4914401;29;20102;-86
2022/01/25 03:06:07;;;;;;;85.28;38.35;;;3.70;99.90;;;;;;4914354;29;20123;-85
2022/01/25 03:08:33;;;;;;;80.00;36.55;;;3.70;99.90;;;;;;4914581;29;20410;-85
2022/01/25 03:10:59;;;;;;;83.20;39.17;;;3.70;99.90;;;;;;4914197;29;20385;-85
2022/01/25 03:13:31;;;;;;;80.85;38.22;;;3.70;99.90;;;;;;4898502;29;20043;-85
2022/01/25 03:16:05;;;;;;;81.85;37.28;;;3.70;99.90;;;;;;4899296;29;20040;-87
2022/01/25 03:21:48;;;;;;;81.88;39.35;;;3.70;99.90;;;;;;4913880;29;20547;-86
2022/01/25 03:23:50;;;;;;;78.50;36.58;;;3.70;99.90;;;;;;4897694;29;20041;-86
2022/01/25 03:26:16;;;;;;;85.57;38.95;;;3.70;99.90;;;;;;4899578;29;20152;-85
2022/01/25 03:28:44;;;;;;;82.30;38.00;;;3.60;99.90;;;;;;4898435;29;20494;-86
2022/01/25 03:31:10;;;;;;;81.72;38.08;;;3.70;99.90;;;;;;4899357;29;20454;-85
2022/01/25 03:33:37;;;;;;;81.82;37.90;;;3.70;99.90;;;;;;4897949;29;20039;-85
2022/01/25 03:36:04;;;;;;;82.80;37.72;;;3.70;99.90;;;;;;4898089;29;20025;-85
2022/01/25 03:38:30;;;;;;;83.93;37.70;;;3.70;99.90;;;;;;4897635;29;20136;-85
2022/01/25 03:40:56;;;;;;;82.00;37.47;;;3.70;99.90;;;;;;4899659;29;20119;-86
2022/01/25 03:43:22;;;;;;;79.65;37.83;;;3.70;99.90;;;;;;4898936;29;20068;-85
2022/01/25 03:51:36;;;;;;;84.88;39.60;;;3.70;99.90;;;;;;4829134;29;20502;-86
2022/01/25 03:54:02;;;;;;;82.53;38.75;;;3.70;99.90;;;;;;4852209;29;20078;-86
2022/01/25 03:56:27;;;;;;;82.60;38.47;;;3.60;99.90;;;;;;4918053;29;20056;-85
2022/01/25 03:58:53;;;;;;;86.93;38.78;;;3.70;99.90;;;;;;4919570;29;20434;-87
2022/01/25 04:01:19;;;;;;;87.70;39.05;;;3.70;99.90;;;;;;4916589;29;20446;-85
2022/01/25 04:03:56;;;;;;;86.43;39.42;;;3.70;99.90;;;;;;4903611;29;20353;-85
2022/01/25 04:06:23;;;;;;;87.10;40.25;;;3.60;99.90;;;;;;4904076;29;20028;-86
2022/01/25 04:08:49;;;;;;;84.20;38.08;;;3.70;99.90;;;;;;4903747;29;20072;-86
2022/01/25 04:11:15;;;;;;;84.40;37.95;;;3.70;99.90;;;;;;4914085;29;20064;-85
2022/01/25 04:13:41;;;;;;;82.97;36.80;;;3.60;99.90;;;;;;4914094;29;20491;-85
2022/01/25 04:16:13;;;;;;;81.50;38.95;;;3.70;99.90;;;;;;4916669;29;20381;-86
2022/01/25 04:26:46;;;;;;;83.32;37.80;;;3.70;99.90;;;;;;4911618;29;20039;-86
2022/01/25 04:29:11;;;;;;;78.10;36.40;;;3.60;99.90;;;;;;4913517;29;20036;-87
2022/01/25 04:31:38;;;;;;;76.63;35.83;;;3.70;99.90;;;;;;4912712;29;20029;-86
2022/01/25 04:34:42;;;;;;;82.93;37.47;;;3.70;99.90;;;;;;4897292;29;20481;-86
2022/01/25 04:56:05;;;;;;;83.78;37.80;;;3.60;99.90;;;;;;4911714;29;20036;-85
2022/01/25 04:58:46;;;;;;;79.38;36.42;;;3.60;99.90;;;;;;4911809;29;20064;-85
2022/01/25 05:01:11;;;;;;;81.07;37.15;;;3.60;99.90;;;;;;4910704;29;20049;-85
2022/01/25 05:04:14;;;;;;;77.72;37.75;;;3.60;99.90;;;;;;4896156;29;20037;-85
2022/01/25 05:06:31;;;;;;;84.88;37.25;;;3.60;99.90;;;;;;4904427;29;20041;-85
2022/01/25 05:09:11;;;;;;;78.85;35.08;;;3.60;99.90;;;;;;4911841;29;20225;-85
2022/01/25 05:11:43;;;;;;;76.32;35.88;;;3.60;99.90;;;;;;4898281;29;20092;-86
2022/01/25 05:14:15;;;;;;;83.53;37.47;;;3.60;99.90;;;;;;4899242;29;20120;-85
2022/01/25 05:16:54;;;;;;;77.82;36.95;;;3.60;99.90;;;;;;4899582;29;20028;-86
2022/01/25 05:19:35;;;;;;;82.75;36.78;;;3.60;99.90;;;;;;4899528;29;20403;-85
2022/01/25 05:22:06;;;;;;;80.18;36.50;;;3.60;99.90;;;;;;4899919;29;20031;-90
2022/01/25 05:24:34;;;;;;;84.55;37.92;;;3.60;99.90;;;;;;4915113;29;20084;-91
2022/01/25 05:27:00;;;;;;;83.10;37.13;;;3.60;99.90;;;;;;4900852;29;20063;-90
2022/01/25 05:29:28;;;;;;;81.03;38.67;;;3.60;99.90;;;;;;4899415;29;20029;-87
2022/01/25 05:32:00;;;;;;;84.15;39.33;;;3.60;99.90;;;;;;4899646;29;20029;-89
2022/01/25 05:34:36;;;;;;;81.25;34.72;;;3.60;99.90;;;;;;4900767;29;20041;-89
2022/01/25 05:37:16;;;;;;;;;;;;;;;;;;;;;
2022/01/25 05:40:12;;;;;;;;;;;;;;;;;;;;;
2022/01/25 05:48:39;;;;;;;83.28;37.83;;;3.50;99.90;;;;;;4880703;29;20065;-87
2022/01/25 05:51:08;;;;;;;78.05;35.08;;;3.50;99.90;;;;;;4899760;29;20040;-88
2022/01/25 05:53:37;;;;;;;86.47;37.28;;;3.50;99.90;;;;;;4916364;29;20484;-88
2022/01/25 05:56:10;;;;;;;80.20;37.10;;;3.50;99.90;;;;;;4901166;29;20496;-88
2022/01/25 05:58:50;;;;;;;;;;;;;;;;;;;;;
2022/01/25 06:01:19;;;;;;;83.03;36.85;;;3.50;99.90;;;;;;4901443;29;20036;-88
2022/01/25 06:03:59;;;;;;;88.25;38.15;;;3.50;99.90;;;;;;4901525;29;20037;-89
2022/01/25 06:06:45;;;;;;;;;;;;;;;;;;;;;
2022/01/25 06:12:44;;;;;;;;;;;;;;;;;;;;;
2022/01/25 06:15:22;;;;;;;83.53;38.58;;;3.60;99.90;;;;;;4901435;29;20041;-88
2022/01/25 06:20:37;;;;;;;84.88;34.80;;;3.60;99.90;;;;;;4890467;29;20445;-88
2022/01/25 06:23:13;;;;;;;83.57;36.40;;;3.50;99.90;;;;;;4899713;29;20482;-87
2022/01/25 06:26:02;;;;;;;77.47;35.03;;;3.50;99.90;;;;;;4915510;29;20434;-88
2022/01/25 06:28:39;;;;;;;80.32;37.58;;;3.50;99.90;;;;;;4899565;29;20036;-87
2022/01/25 06:31:05;;;;;;;75.35;34.45;;;3.50;99.90;;;;;;4899676;29;20047;-85
2022/01/25 06:33:40;;;;;;;;;;;;;;;;;;;;;
2022/01/25 06:36:09;;;;;;;80.45;35.80;;;3.50;99.90;;;;;;4900962;29;20067;-90
2022/01/25 06:38:35;;;;;;;83.95;37.13;;;3.50;99.90;;;;;;4899147;29;20465;-87
2022/01/25 06:41:19;;;;;;;83.05;35.80;;;3.50;99.90;;;;;;4899350;29;20068;-87
2022/01/25 06:43:50;;;;;;;88.63;38.88;;;3.50;99.90;;;;;;4915729;29;20032;-86
2022/01/25 06:46:21;;;;;;;78.72;34.92;;;3.60;99.90;;;;;;4900228;29;20021;-87
2022/01/25 06:48:49;;;;;;;81.15;36.30;;;3.50;99.90;;;;;;4899175;29;20036;-86
2022/01/25 06:51:15;;;;;;;76.43;34.85;;;3.50;99.90;;;;;;4900544;29;20025;-87
2022/01/25 06:53:43;;;;;;;79.82;35.38;;;3.50;99.90;;;;;;4899006;29;20469;-87
2022/01/25 06:56:23;;;;;;;88.55;38.13;;;3.50;99.90;;;;;;4899171;29;20025;-88
2022/01/25 06:58:49;;;;;;;78.38;34.97;;;3.50;99.90;;;;;;4899748;29;20080;-87
2022/01/25 07:01:17;;;;;;;81.88;35.58;;;3.50;99.90;;;;;;4915297;29;20025;-86
2022/01/25 07:03:45;;;;;;;81.57;35.38;;;3.60;99.90;;;;;;4899238;29;20184;-88
2022/01/25 07:06:14;;;;;;;81.75;37.25;;;3.60;99.90;;;;;;4899347;29;20033;-87
2022/01/25 07:08:44;;;;;;;80.85;36.78;;;3.50;99.90;;;;;;4899264;29;20025;-87
2022/01/25 07:11:14;;;;;;;84.93;38.13;;;3.60;99.90;;;;;;4900840;29;20032;-88
2022/01/25 07:13:42;;;;;;;90.38;39.22;;;3.50;99.90;;;;;;4914189;29;20029;-87
2022/01/25 07:16:20;;;;;;;81.72;35.58;;;3.50;99.90;;;;;;4899031;29;20036;-88
2022/01/25 07:18:49;;;;;;;79.97;35.20;;;3.60;99.90;;;;;;4914210;29;20029;-90
2022/01/25 07:21:18;;;;;;;81.45;35.65;;;3.50;99.90;;;;;;4915270;29;20029;-88
2022/01/25 07:23:56;;;;;;;78.95;35.55;;;3.50;99.90;;;;;;4898707;29;20040;-90
2022/01/25 07:26:25;;;;;;;80.35;34.85;;;3.50;99.90;;;;;;4899305;29;20040;-89
2022/01/25 07:28:51;;;;;;;79.75;38.80;;;3.50;99.90;;;;;;4914700;29;20028;-89
2022/01/25 07:31:20;;;;;;;84.25;38.22;;;3.50;99.90;;;;;;4898711;29;20031;-88
2022/01/25 07:34:06;;;;;;;;;;;;;;;;;;;;;
2022/01/25 07:36:37;;;;;;;86.15;36.35;;;3.50;99.90;;;;;;4900035;29;20183;-88
2022/01/25 07:39:20;;;;;;;86.47;36.42;;;3.50;99.90;;;;;;4900048;29;20048;-89
2022/01/25 07:41:56;;;;;;;79.90;36.08;;;3.50;99.90;;;;;;4899555;29;20070;-88
2022/01/25 07:44:29;;;;;;;84.43;35.53;;;3.50;99.90;;;;;;4899579;29;20036;-87
2022/01/25 07:46:57;;;;;;;79.28;34.63;;;3.50;99.90;;;;;;4898920;29;20071;-89
2022/01/25 07:49:33;;;;;;;83.47;35.22;;;3.50;99.90;;;;;;4898255;29;20076;-88
2022/01/25 07:52:09;;;;;;;82.30;36.90;;;3.50;99.90;;;;;;4912718;29;20036;-87
2022/01/25 07:54:49;;;;;;;74.95;34.78;;;3.50;99.90;;;;;;4897630;29;20035;-85
2022/01/25 07:57:15;;;;;;;81.07;34.97;;;3.50;99.90;;;;;;4898958;29;20108;-87
2022/01/25 07:59:41;;;;;;;77.55;36.15;;;3.50;99.90;;;;;;4897848;29;20055;-87
2022/01/25 08:02:28;;;;;;;;;;;;;;;;;;;;;
2022/01/25 08:05:16;;;;;;;;;;;;;;;;;;;;;
2022/01/25 08:07:48;;;;;;;78.20;34.95;;;3.60;99.90;;;;;;4910653;29;20024;-86
2022/01/25 08:10:14;;;;;;;;;;;3.60;99.90;;;;;;4899983;29;20052;-86
2022/01/25 08:12:48;;;;;;;78.40;35.15;;;3.60;99.90;;;;;;4915413;29;19907;-86
2022/01/25 08:15:24;;;;;;;84.72;36.55;;;3.60;99.90;;;;;;4906265;29;20035;-85
2022/01/25 08:17:52;;;;;;;83.38;35.35;;;3.60;99.90;;;;;;4899567;29;20157;-86
2022/01/25 08:22:25;;;;;;;83.93;35.15;;;3.60;99.90;;;;;;5082663;27;20478;-46
2022/01/25 08:24:52;;;;;;;81.10;35.88;;;3.60;99.90;;;;;;5075629;28;20049;-47
2022/01/25 08:27:20;;;;;;;84.63;36.47;;;3.60;99.90;;;;;;5075096;28;20033;-50
2022/01/25 08:29:49;;;;;;;79.65;34.92;;;3.60;99.90;;;;;;5076219;28;20405;-48
2022/01/25 08:32:15;;;;;;;84.85;35.38;;;3.60;99.90;;;;;;5076217;28;20059;-48
2022/01/25 08:34:41;;;;;;;84.15;36.40;;;3.60;99.90;;;;;;5081518;28;20431;-51
2022/01/25 08:37:07;;;;;;;88.50;35.78;;;3.60;99.90;;;;;;5075112;28;20029;-51
2022/01/25 08:39:33;;;;;;;91.47;40.83;;;3.60;99.90;;;;;;5078347;28;20031;-50
2022/01/25 08:41:59;;;;;;;86.25;37.58;;;3.70;99.90;;;;;;5078557;28;20041;-49
2022/01/25 08:44:25;;;;;;;76.22;36.85;;;3.70;99.90;;;;;;5070494;28;20667;-50
2022/01/25 08:46:51;;;;;;;88.20;37.33;;;3.70;99.90;;;;;;5075361;28;20037;-50
2022/01/25 08:49:17;;;;;;;83.78;37.25;;;3.70;99.90;;;;;;5077409;28;20112;-49
2022/01/25 08:51:43;;;;;;;81.32;35.53;;;3.70;99.90;;;;;;5078578;28;20019;-51
2022/01/25 08:54:09;;;;;;;78.55;35.97;;;3.70;99.90;;;;;;5077839;28;20468;-50
2022/01/25 08:56:35;;;;;;;80.88;35.80;;;3.70;99.90;;;;;;5078043;28;20052;-51
2022/01/25 08:59:00;;;;;;;81.97;36.78;;;3.70;99.90;;;;;;5076998;28;20051;-50
2022/01/25 09:01:27;;;;;;;80.72;35.17;;;3.70;99.90;;;;;;5077885;28;20040;-48
2022/01/25 09:03:54;;;;;;;82.45;35.53;;;3.70;99.90;;;;;;5078916;28;20104;-48
2022/01/25 09:06:20;;;;;;;82.65;34.63;;;3.80;99.90;;;;;;5078574;28;20180;-47
2022/01/25 09:08:46;;;;;;;76.28;35.35;;;3.80;99.90;;;;;;5079591;28;20139;-50
2022/01/25 09:11:12;;;;;;;87.38;37.15;;;3.80;99.90;;;;;;5075471;28;20036;-48
2022/01/25 09:13:39;;;;;;;74.78;33.25;;;3.80;99.90;;;;;;5079023;28;20035;-52
2022/01/25 09:16:07;;;;;;;83.18;35.95;;;3.80;99.90;;;;;;5079045;28;20025;-52
2022/01/25 09:18:32;;;;;;;84.72;36.45;;;3.80;99.90;;;;;;5077204;28;20112;-51
2022/01/25 09:20:58;;;;;;;76.95;34.75;;;3.80;99.90;;;;;;5078673;28;20095;-52
2022/01/25 09:23:25;;;;;;;77.97;35.17;;;3.80;99.90;;;;;;5076343;28;20025;-60
2022/01/25 09:25:52;;;;;;;79.78;35.30;;;3.80;99.90;;;;;;5080312;28;20115;-52
2022/01/25 09:28:17;;;;;;;82.70;34.03;;;3.80;99.90;;;;;;5074741;28;20040;-50
2022/01/25 09:30:44;;;;;;;80.03;32.97;;;3.90;99.90;;;;;;5077567;28;20029;-47
2022/01/25 09:33:11;;;;;;;77.55;34.25;;;3.90;99.90;;;;;;5067768;28;20021;-48
2022/01/25 09:35:37;;;;;;;77.95;33.92;;;3.90;99.90;;;;;;5063396;28;20029;-49
2022/01/25 09:38:03;;;;;;;79.13;34.95;;;3.90;99.90;;;;;;5061503;28;20032;-50
2022/01/25 09:40:29;;;;;;;83.65;35.47;;;3.90;99.90;;;;;;5063037;28;20037;-49
2022/01/25 09:42:57;;;;;;;80.40;35.42;;;3.90;99.90;;;;;;5062360;28;20024;-48
2022/01/25 09:45:23;;;;;;;81.28;35.30;;;3.90;99.90;;;;;;5061662;28;20040;-51
2022/01/25 09:47:51;;;;;;;82.55;35.28;;;4.00;99.90;;;;;;5063219;28;20017;-50
2022/01/25 09:50:17;;;;;;;83.32;35.70;;;4.00;99.90;;;;;;5063315;28;20734;-48
2022/01/25 09:52:44;;;;;;;81.82;36.28;;;4.00;99.90;;;;;;5063303;28;20040;-51
2022/01/25 09:55:26;;;;;;;83.65;34.97;;;4.00;99.90;;;;;;5064473;28;20079;-58
2022/01/25 09:57:52;;;;;;;82.50;35.63;;;4.00;99.90;;;;;;5060941;28;20098;-51
2022/01/25 10:00:21;;;;;;;82.22;35.95;;;4.00;99.90;;;;;;5062758;28;20033;-51
2022/01/25 10:03:09;;;;;;;76.45;33.90;;;4.00;99.90;;;;;;5060256;28;20108;-52
2022/01/25 10:05:37;;;;;;;73.75;34.55;;;4.00;99.90;;;;;;5061395;28;20044;-51
2022/01/25 10:08:10;;;;;;;75.60;34.28;;;4.00;99.90;;;;;;5063696;28;20029;-53
2022/01/25 10:10:40;;;;;;;81.72;34.22;;;4.00;99.90;;;;;;5044995;28;20057;-51
2022/01/25 10:13:17;;;;;;;81.55;32.67;;;4.10;99.90;;;;;;5055976;28;20084;-50
2022/01/25 10:15:45;;;;;;;75.68;34.67;;;4.10;99.90;;;;;;5053692;28;20037;-50
2022/01/25 10:18:11;;;;;;;81.80;34.63;;;4.10;99.90;;;;;;5056137;28;20048;-51
2022/01/25 10:20:42;;;;;;;82.85;35.45;;;4.10;99.90;;;;;;5055052;28;20056;-50
2022/01/25 10:23:24;;;;;;;79.90;34.65;;;4.10;99.90;;;;;;5056502;28;20091;-51
2022/01/25 10:25:51;;;;;;;84.28;35.63;;;4.10;99.90;;;;;;5059939;28;20020;-51
2022/01/25 10:28:23;;;;;;;80.53;34.90;;;4.10;99.90;;;;;;5059295;28;20155;-51
2022/01/25 10:30:52;;;;;;;81.07;36.08;;;4.10;99.90;;;;;;5061525;28;20025;-51
2022/01/25 10:33:24;;;;;;;77.68;34.63;;;4.10;99.90;;;;;;5059220;28;20071;-50
2022/01/25 10:35:50;;;;;;;82.13;34.92;;;4.10;99.90;;;;;;5060635;28;20118;-54
2022/01/25 10:38:24;;;;;;;88.88;37.45;;;4.10;99.90;;;;;;5055964;28;20032;-51
2022/01/25 10:40:58;;;;;;;79.40;33.65;;;4.20;99.90;;;;;;5058339;28;20033;-52
2022/01/25 10:43:26;;;;;;;87.22;34.83;;;4.20;99.90;;;;;;5060435;28;20036;-46
2022/01/25 10:46:30;;;;;;;81.13;35.40;;;4.20;99.90;;;;;;5059429;28;20120;-46
2022/01/25 10:48:59;;;;;;;82.85;37.95;;;4.20;99.90;;;;;;5057562;28;20025;-48
2022/01/25 10:51:29;;;;;;;78.40;35.40;;;4.20;99.90;;;;;;5062174;28;20021;-51
2022/01/25 10:53:59;;;;;;;81.60;36.20;;;4.20;99.90;;;;;;5055981;28;20035;-50
2022/01/25 10:56:25;;;;;;;80.95;35.53;;;4.20;99.90;;;;;;5057758;28;20051;-53
2022/01/25 10:58:50;;;;;;;79.97;35.63;;;4.20;99.90;;;;;;5057935;28;20021;-51
2022/01/25 11:01:37;;;;;;;81.13;36.63;;;4.20;99.90;;;;;;5058848;28;20041;-47
2022/01/25 11:04:08;;;;;;;81.07;35.05;;;4.20;99.90;;;;;;5058497;28;20016;-49
2022/01/25 11:06:34;;;;;;;77.43;34.53;;;4.20;99.90;;;;;;5055538;28;20028;-51
2022/01/25 11:09:04;;;;;;;79.65;34.65;;;4.30;99.90;;;;;;5058961;28;20055;-53
2022/01/25 11:11:35;;;;;;;77.72;34.65;;;4.30;99.90;;;;;;5056984;28;20025;-50
2022/01/25 11:14:50;;;;;;;74.05;33.08;;;4.30;99.90;;;;;;5056867;28;20472;-49
2022/01/25 11:16:49;;;;;;;84.47;33.67;;;4.40;99.90;;;;;;5055586;28;20227;-49
2022/01/25 11:19:16;;;;;;;78.10;35.00;;;4.40;99.90;;;;;;5056551;28;20100;-52
2022/01/25 11:21:43;;;;;;;83.82;36.95;;;4.40;99.90;;;;;;5073144;28;20056;-48
2022/01/25 11:24:12;;;;;;;76.45;32.42;;;4.30;99.90;;;;;;5055027;28;20036;-51
2022/01/25 11:26:41;;;;;;;80.18;35.80;;;4.40;99.90;;;;;;5058824;28;20021;-49
2022/01/25 11:29:07;;;;;;;85.35;36.10;;;4.40;99.90;;;;;;5038935;28;20337;-49
2022/01/25 11:31:36;;;;;;;81.70;37.55;;;4.40;99.90;;;;;;5055953;28;20039;-48
2022/01/25 11:34:05;;;;;;;83.82;37.78;;;4.40;99.90;;;;;;5056639;28;20084;-51
2022/01/25 11:36:43;;;;;;;88.57;41.05;;;4.40;99.90;;;;;;5054359;28;20032;-50
2022/01/25 11:39:10;;;;;;;84.07;35.38;;;4.40;99.90;;;;;;5059840;28;20385;-52
2022/01/25 11:41:40;;;;;;;76.43;32.92;;;4.50;99.90;;;;;;5059082;28;20163;-48
2022/01/25 11:44:16;;;;;;;82.85;34.97;;;4.50;99.90;;;;;;5061506;28;20075;-50
2022/01/25 11:46:46;;;;;;;80.05;34.80;;;4.40;99.90;;;;;;5060385;28;20116;-51
2022/01/25 11:49:18;;;;;;;77.53;35.00;;;4.50;99.90;;;;;;5059736;28;20033;-52
2022/01/25 11:51:46;;;;;;;79.43;34.85;;;4.50;99.90;;;;;;5062032;28;20029;-48
2022/01/25 11:54:11;;;;;;;79.38;34.17;;;4.50;99.90;;;;;;5060271;28;20017;-49
2022/01/25 11:56:39;;;;;;;81.32;35.33;;;4.40;99.90;;;;;;5060239;28;20025;-51
2022/01/25 11:59:05;;;;;;;85.60;35.13;;;4.50;99.90;;;;;;5060553;28;20084;-48
2022/01/25 12:01:34;;;;;;;80.60;33.38;;;4.50;99.90;;;;;;5059940;28;20036;-49
2022/01/25 12:04:01;;;;;;;83.30;35.50;;;4.50;99.90;;;;;;5062130;28;20045;-48
2022/01/25 12:06:36;;;;;;;83.43;35.35;;;4.50;99.90;;;;;;5059800;28;20053;-48
2022/01/25 12:09:20;;;;;;;80.53;33.80;;;4.50;99.90;;;;;;5061529;28;20053;-53
2022/01/25 12:11:58;;;;;;;83.63;33.53;;;4.50;99.90;;;;;;5046144;28;20036;-48
2022/01/25 12:14:27;;;;;;;75.47;34.70;;;4.50;99.90;;;;;;5060580;28;20025;-52
2022/01/25 12:16:56;;;;;;;85.03;34.88;;;4.50;99.90;;;;;;5060470;28;20028;-50
2022/01/25 12:19:50;;;;;;;84.72;35.85;;;4.50;99.90;;;;;;5059314;28;20063;-49
2022/01/25 12:22:42;;;;;;;80.85;34.53;;;4.50;99.90;;;;;;5058625;28;20056;-49
2022/01/25 12:25:26;;;;;;;83.40;34.80;;;4.50;99.90;;;;;;5031292;28;20041;-49
2022/01/25 12:27:59;;;;;;;78.88;35.33;;;4.40;99.90;;;;;;5033363;28;20124;-47
2022/01/25 12:30:25;;;;;;;82.90;35.00;;;4.50;99.90;;;;;;5040457;28;20036;-51
2022/01/25 12:33:08;;;;;;;82.40;35.10;;;4.50;99.90;;;;;;5039885;28;20025;-48
2022/01/25 12:35:54;;;;;;;80.57;33.65;;;4.50;99.90;;;;;;5036020;28;20018;-48
2022/01/25 12:38:24;;;;;;;81.30;34.17;;;4.40;99.90;;;;;;5034562;28;20197;-51
2022/01/25 12:40:51;;;;;;;80.65;36.22;;;4.40;99.90;;;;;;5037010;28;20045;-50
2022/01/25 12:43:21;;;;;;;83.22;36.25;;;4.40;99.90;;;;;;5039907;28;20037;-51
2022/01/25 12:46:00;;;;;;;78.63;35.60;;;4.50;99.90;;;;;;5038658;28;20464;-49
2022/01/25 12:48:47;;;;;;;78.35;34.92;;;4.40;99.90;;;;;;5028943;28;20036;-49
2022/01/25 12:51:17;;;;;;;76.22;33.28;;;4.40;99.90;;;;;;5038884;28;20026;-50
2022/01/25 12:53:45;;;;;;;81.88;34.83;;;4.50;99.90;;;;;;5038377;28;20033;-49
2022/01/25 12:56:23;;;;;;;83.90;34.17;;;4.40;99.90;;;;;;5040529;28;20029;-47
2022/01/25 12:58:52;;;;;;;78.00;34.55;;;4.40;99.90;;;;;;5039427;28;20021;-48
2022/01/25 13:01:20;;;;;;;82.10;35.30;;;4.50;99.90;;;;;;5035315;28;20072;-49
2022/01/25 13:03:48;;;;;;;79.35;34.38;;;4.50;99.90;;;;;;5040300;28;20068;-50
2022/01/25 13:06:16;;;;;;;82.43;35.28;;;4.50;99.90;;;;;;5037246;28;20596;-48
2022/01/25 13:08:58;;;;;;;80.88;34.60;;;4.50;99.90;;;;;;5043761;28;20029;-50
2022/01/25 13:11:48;;;;;;;82.60;34.40;;;4.50;99.90;;;;;;5041948;28;20034;-50
2022/01/25 13:14:19;;;;;;;79.10;32.75;;;4.50;99.90;;;;;;5042665;28;20027;-52
2022/01/25 13:16:55;;;;;;;79.82;35.38;;;4.50;99.90;;;;;;5044126;28;20033;-49
2022/01/25 13:19:36;;;;;;;77.95;32.63;;;4.50;99.90;;;;;;5042087;28;20025;-52
2022/01/25 13:22:10;;;;;;;73.78;33.03;;;4.50;99.90;;;;;;5044279;28;20045;-51
2022/01/25 13:24:47;;;;;;;81.30;34.90;;;4.50;99.90;;;;;;5042032;28;20033;-51
2022/01/25 13:27:15;;;;;;;79.95;34.08;;;4.50;99.90;;;;;;5042253;28;20018;-48
2022/01/25 13:32:37;;;;;;;80.90;34.83;;;4.50;99.90;;;;;;5042131;28;20047;-47
2022/01/25 13:35:02;;;;;;;79.22;34.05;;;4.50;99.90;;;;;;5041015;28;20040;-49
2022/01/25 13:37:37;;;;;;;74.75;33.25;;;4.50;99.90;;;;;;5039975;28;20037;-51
2022/01/25 13:40:07;;;;;;;81.32;34.97;;;4.50;99.90;;;;;;5038825;28;20477;-49
2022/01/25 13:42:45;;;;;;;78.63;33.03;;;4.50;99.90;;;;;;5017782;28;20038;-49
2022/01/25 13:46:05;;;;;;;80.80;33.47;;;4.50;99.90;;;;;;5062315;28;20441;-52
2022/01/25 13:48:32;;;;;;;81.75;34.10;;;4.50;99.90;;;;;;5084547;28;20126;-52
2022/01/25 13:51:02;;;;;;;89.13;36.00;;;4.50;99.90;;;;;;5065358;28;20037;-53
2022/01/25 13:53:28;;;;;;;79.60;34.03;;;4.40;99.90;;;;;;5066903;28;20029;-53
2022/01/25 13:55:57;;;;;;;76.45;32.47;;;4.50;99.90;;;;;;5065471;28;20041;-53
2022/01/25 13:58:29;;;;;;;81.03;33.08;;;4.40;99.90;;;;;;5069903;28;20017;-50
2022/01/25 14:00:56;;;;;;;74.65;32.47;;;4.50;99.90;;;;;;5063547;28;20052;-50
2022/01/25 14:03:56;;;;;;;78.43;34.38;;;4.40;99.90;;;;;;5064122;28;20048;-51
2022/01/25 14:06:33;;;;;;;74.22;31.83;;;4.50;99.90;;;;;;5071645;28;20053;-49
2022/01/25 14:09:11;;;;;;;78.72;33.08;;;4.40;99.90;;;;;;5063048;28;20060;-50
2022/01/25 14:21:40;;;;;;;75.63;31.52;;;4.40;99.90;;;;;;5054529;28;20040;-51
2022/01/25 14:22:51;;;;;;;74.00;31.73;;;4.40;99.90;;;;;;5052366;28;20087;-50
2022/01/25 14:25:37;;;;;;;70.35;30.20;;;4.40;99.90;;;;;;5053428;28;20045;-53
2022/01/25 14:28:13;;;;;;;77.65;33.35;;;4.40;99.90;;;;;;5053214;28;20055;-51
2022/01/25 14:30:48;;;;;;;85.00;33.08;;;4.30;99.90;;;;;;5051388;28;20049;-51
2022/01/25 14:33:17;;;;;;;78.43;33.80;;;4.30;99.90;;;;;;5054116;28;20029;-53
2022/01/25 14:35:49;;;;;;;76.97;33.55;;;4.30;99.90;;;;;;5067045;28;20321;-52
2022/01/25 14:38:28;;;;;;;80.28;34.00;;;4.30;99.90;;;;;;5053015;28;20017;-49
2022/01/25 14:41:04;;;;;;;74.88;32.10;;;4.40;99.90;;;;;;5053824;28;20052;-50
2022/01/25 14:44:03;;;;;;;73.88;32.13;;;4.30;99.90;;;;;;5050905;28;20029;-49
2022/01/25 14:46:36;;;;;;;78.95;32.38;;;4.30;99.90;;;;;;5019787;28;20058;-49
2022/01/25 14:49:08;;;;;;;76.63;31.58;;;4.30;99.90;;;;;;5013792;28;20102;-53
2022/01/25 14:51:44;;;;;;;78.30;33.50;;;4.30;99.90;;;;;;5014151;28;20022;-50
2022/01/25 14:54:16;;;;;;;80.07;32.53;;;4.30;99.90;;;;;;5014225;28;20022;-52
2022/01/25 14:56:51;;;;;;;76.32;31.05;;;4.30;99.90;;;;;;5002528;28;20022;-52
2022/01/25 14:59:39;;;;;;;78.68;33.97;;;4.30;99.90;;;;;;5001086;28;20046;-56
2022/01/25 15:02:20;;;;;;;91.88;39.08;;;4.30;99.90;;;;;;5000050;28;20053;-51
2022/01/25 15:04:50;;;;;;;84.45;36.13;;;4.30;99.90;;;;;;4996286;28;20030;-49
2022/01/25 15:07:20;;;;;;;76.63;33.35;;;4.20;99.90;;;;;;5001018;28;20544;-53
2022/01/25 15:09:53;;;;;;;80.20;33.70;;;4.20;99.90;;;;;;5000128;28;20035;-52